sensor_id;sensor_type;location;lat;lon;timestamp;P1;durP1;ratioP1;P2;durP2;ratioP2
74196;SDS011;62555;52.678;4.900;2023-07-13T00:02:02;2.53;;;2.30;;
74196;SDS011;62555;52.678;4.900;2023-07-13T00:04:27;3.33;;;2.33;;
74196;SDS011;62555;52.678;4.900;2023-07-13T00:06:53;3.33;;;2.63;;
74196;SDS011;62555;52.678;4.900;2023-07-13T00:09:18;4.25;;;2.22;;
74196;SDS011;62555;52.678;4.900;2023-07-13T00:11:44;3.13;;;2.00;;
74196;SDS011;62555;52.678;4.900;2023-07-13T00:14:10;2.95;;;2.38;;
74196;SDS011;62555;52.678;4.900;2023-07-13T00:16:36;2.55;;;2.05;;
74196;SDS011;62555;52.678;4.900;2023-07-13T00:19:01;3.90;;;2.47;;
74196;SDS011;62555;52.678;4.900;2023-07-13T00:21:27;2.60;;;1.73;;
74196;SDS011;62555;52.678;4.900;2023-07-13T00:23:52;2.55;;;2.25;;
74196;SDS011;62555;52.678;4.900;2023-07-13T00:26:17;2.97;;;1.90;;
74196;SDS011;62555;52.678;4.900;2023-07-13T00:28:43;2.57;;;2.20;;
74196;SDS011;62555;52.678;4.900;2023-07-13T00:31:09;3.83;;;1.70;;
74196;SDS011;62555;52.678;4.900;2023-07-13T00:33:34;3.53;;;2.28;;
74196;SDS011;62555;52.678;4.900;2023-07-13T00:35:59;2.60;;;1.80;;
74196;SDS011;62555;52.678;4.900;2023-07-13T00:38:24;1.80;;;1.50;;
74196;SDS011;62555;52.678;4.900;2023-07-13T00:40:50;2.30;;;1.77;;
74196;SDS011;62555;52.678;4.900;2023-07-13T00:43:16;2.50;;;1.70;;
74196;SDS011;62555;52.678;4.900;2023-07-13T00:48:14;2.25;;;1.60;;
74196;SDS011;62555;52.678;4.900;2023-07-13T00:50:40;2.17;;;1.80;;
74196;SDS011;62555;52.678;4.900;2023-07-13T00:53:06;3.50;;;2.15;;
74196;SDS011;62555;52.678;4.900;2023-07-13T00:55:32;2.38;;;1.35;;
74196;SDS011;62555;52.678;4.900;2023-07-13T00:57:58;2.35;;;1.48;;
74196;SDS011;62555;52.678;4.900;2023-07-13T01:00:23;2.80;;;1.50;;
74196;SDS011;62555;52.678;4.900;2023-07-13T01:02:50;2.17;;;1.70;;
74196;SDS011;62555;52.678;4.900;2023-07-13T01:05:17;1.60;;;1.20;;
74196;SDS011;62555;52.678;4.900;2023-07-13T01:07:43;2.28;;;1.50;;
74196;SDS011;62555;52.678;4.900;2023-07-13T01:10:09;2.53;;;1.48;;
74196;SDS011;62555;52.678;4.900;2023-07-13T01:12:35;2.72;;;1.42;;
74196;SDS011;62555;52.678;4.900;2023-07-13T01:15:01;3.00;;;1.40;;
74196;SDS011;62555;52.678;4.900;2023-07-13T01:17:29;2.50;;;1.23;;
74196;SDS011;62555;52.678;4.900;2023-07-13T01:19:55;1.75;;;1.50;;
74196;SDS011;62555;52.678;4.900;2023-07-13T01:22:20;2.97;;;1.57;;
74196;SDS011;62555;52.678;4.900;2023-07-13T01:24:50;2.30;;;1.40;;
74196;SDS011;62555;52.678;4.900;2023-07-13T01:27:17;3.20;;;1.35;;
74196;SDS011;62555;52.678;4.900;2023-07-13T01:29:43;2.15;;;1.58;;
74196;SDS011;62555;52.678;4.900;2023-07-13T01:32:09;2.10;;;1.48;;
74196;SDS011;62555;52.678;4.900;2023-07-13T01:34:35;3.03;;;1.67;;
74196;SDS011;62555;52.678;4.900;2023-07-13T01:37:02;3.22;;;1.38;;
74196;SDS011;62555;52.678;4.900;2023-07-13T01:39:27;2.03;;;1.20;;
74196;SDS011;62555;52.678;4.900;2023-07-13T01:41:52;2.30;;;1.30;;
74196;SDS011;62555;52.678;4.900;2023-07-13T01:44:17;2.87;;;1.57;;
74196;SDS011;62555;52.678;4.900;2023-07-13T01:46:42;2.80;;;1.30;;
74196;SDS011;62555;52.678;4.900;2023-07-13T01:49:08;3.23;;;1.43;;
74196;SDS011;62555;52.678;4.900;2023-07-13T01:51:33;4.00;;;1.63;;
74196;SDS011;62555;52.678;4.900;2023-07-13T01:53:58;2.87;;;1.13;;
74196;SDS011;62555;52.678;4.900;2023-07-13T01:56:23;3.10;;;1.67;;
74196;SDS011;62555;52.678;4.900;2023-07-13T01:58:48;1.73;;;1.00;;
74196;SDS011;62555;52.678;4.900;2023-07-13T02:01:14;3.03;;;1.20;;
74196;SDS011;62555;52.678;4.900;2023-07-13T02:03:39;3.13;;;1.43;;
74196;SDS011;62555;52.678;4.900;2023-07-13T02:06:04;2.10;;;1.37;;
74196;SDS011;62555;52.678;4.900;2023-07-13T02:08:30;3.83;;;1.65;;
74196;SDS011;62555;52.678;4.900;2023-07-13T02:10:56;1.60;;;1.10;;
74196;SDS011;62555;52.678;4.900;2023-07-13T02:13:21;2.33;;;1.20;;
74196;SDS011;62555;52.678;4.900;2023-07-13T02:15:46;2.27;;;1.40;;
74196;SDS011;62555;52.678;4.900;2023-07-13T02:18:14;2.20;;;1.08;;
74196;SDS011;62555;52.678;4.900;2023-07-13T02:20:42;1.88;;;1.10;;
74196;SDS011;62555;52.678;4.900;2023-07-13T02:23:07;2.23;;;1.30;;
74196;SDS011;62555;52.678;4.900;2023-07-13T02:25:32;3.13;;;1.30;;
74196;SDS011;62555;52.678;4.900;2023-07-13T02:27:57;2.17;;;1.00;;
74196;SDS011;62555;52.678;4.900;2023-07-13T02:30:22;2.77;;;1.27;;
74196;SDS011;62555;52.678;4.900;2023-07-13T02:32:49;2.40;;;1.38;;
74196;SDS011;62555;52.678;4.900;2023-07-13T02:35:15;3.65;;;1.25;;
74196;SDS011;62555;52.678;4.900;2023-07-13T02:37:40;1.60;;;1.10;;
74196;SDS011;62555;52.678;4.900;2023-07-13T02:40:06;3.25;;;1.02;;
74196;SDS011;62555;52.678;4.900;2023-07-13T02:42:33;1.27;;;0.80;;
74196;SDS011;62555;52.678;4.900;2023-07-13T02:44:58;2.15;;;0.90;;
74196;SDS011;62555;52.678;4.900;2023-07-13T02:47:24;2.93;;;1.30;;
74196;SDS011;62555;52.678;4.900;2023-07-13T02:49:49;2.92;;;1.50;;
74196;SDS011;62555;52.678;4.900;2023-07-13T02:52:14;2.30;;;1.23;;
74196;SDS011;62555;52.678;4.900;2023-07-13T02:54:39;1.20;;;0.83;;
74196;SDS011;62555;52.678;4.900;2023-07-13T02:57:05;2.17;;;1.10;;
74196;SDS011;62555;52.678;4.900;2023-07-13T02:59:30;3.20;;;1.10;;
74196;SDS011;62555;52.678;4.900;2023-07-13T03:01:56;2.03;;;1.30;;
74196;SDS011;62555;52.678;4.900;2023-07-13T03:04:21;1.53;;;1.10;;
74196;SDS011;62555;52.678;4.900;2023-07-13T03:06:46;1.67;;;1.07;;
74196;SDS011;62555;52.678;4.900;2023-07-13T03:09:11;1.42;;;0.90;;
74196;SDS011;62555;52.678;4.900;2023-07-13T03:11:37;1.40;;;0.93;;
74196;SDS011;62555;52.678;4.900;2023-07-13T03:14:03;2.22;;;1.15;;
74196;SDS011;62555;52.678;4.900;2023-07-13T03:16:28;2.60;;;1.10;;
74196;SDS011;62555;52.678;4.900;2023-07-13T03:18:53;1.43;;;0.90;;
74196;SDS011;62555;52.678;4.900;2023-07-13T03:21:18;1.92;;;1.00;;
74196;SDS011;62555;52.678;4.900;2023-07-13T03:23:44;2.10;;;0.90;;
74196;SDS011;62555;52.678;4.900;2023-07-13T03:26:10;2.20;;;1.37;;
74196;SDS011;62555;52.678;4.900;2023-07-13T03:28:36;1.95;;;0.85;;
74196;SDS011;62555;52.678;4.900;2023-07-13T03:31:06;2.47;;;1.30;;
74196;SDS011;62555;52.678;4.900;2023-07-13T03:33:32;2.40;;;1.10;;
74196;SDS011;62555;52.678;4.900;2023-07-13T03:35:58;3.37;;;1.20;;
74196;SDS011;62555;52.678;4.900;2023-07-13T03:38:23;3.00;;;1.40;;
74196;SDS011;62555;52.678;4.900;2023-07-13T03:40:48;3.25;;;1.17;;
74196;SDS011;62555;52.678;4.900;2023-07-13T03:43:14;1.73;;;0.80;;
74196;SDS011;62555;52.678;4.900;2023-07-13T03:45:39;1.30;;;0.90;;
74196;SDS011;62555;52.678;4.900;2023-07-13T03:48:04;2.40;;;0.90;;
74196;SDS011;62555;52.678;4.900;2023-07-13T03:50:30;1.65;;;0.85;;
74196;SDS011;62555;52.678;4.900;2023-07-13T03:52:55;2.00;;;0.80;;
74196;SDS011;62555;52.678;4.900;2023-07-13T03:55:21;1.90;;;1.02;;
74196;SDS011;62555;52.678;4.900;2023-07-13T03:57:46;1.10;;;1.00;;
74196;SDS011;62555;52.678;4.900;2023-07-13T04:00:11;2.72;;;1.00;;
74196;SDS011;62555;52.678;4.900;2023-07-13T04:02:37;1.92;;;0.88;;
74196;SDS011;62555;52.678;4.900;2023-07-13T04:05:02;2.60;;;1.10;;
74196;SDS011;62555;52.678;4.900;2023-07-13T04:07:27;3.13;;;1.40;;
74196;SDS011;62555;52.678;4.900;2023-07-13T04:09:53;1.60;;;0.90;;
74196;SDS011;62555;52.678;4.900;2023-07-13T04:12:18;1.10;;;0.97;;
74196;SDS011;62555;52.678;4.900;2023-07-13T04:14:43;3.60;;;1.27;;
74196;SDS011;62555;52.678;4.900;2023-07-13T04:17:08;3.47;;;1.20;;
74196;SDS011;62555;52.678;4.900;2023-07-13T04:19:34;1.77;;;0.80;;
74196;SDS011;62555;52.678;4.900;2023-07-13T04:21:59;1.80;;;1.03;;
74196;SDS011;62555;52.678;4.900;2023-07-13T04:24:24;1.53;;;0.90;;
74196;SDS011;62555;52.678;4.900;2023-07-13T04:26:49;1.50;;;0.90;;
74196;SDS011;62555;52.678;4.900;2023-07-13T04:29:14;2.23;;;0.97;;
74196;SDS011;62555;52.678;4.900;2023-07-13T04:31:40;2.53;;;1.17;;
74196;SDS011;62555;52.678;4.900;2023-07-13T04:34:05;1.83;;;0.80;;
74196;SDS011;62555;52.678;4.900;2023-07-13T04:36:30;1.67;;;1.07;;
74196;SDS011;62555;52.678;4.900;2023-07-13T04:38:56;2.38;;;0.85;;
74196;SDS011;62555;52.678;4.900;2023-07-13T04:41:21;2.93;;;1.20;;
74196;SDS011;62555;52.678;4.900;2023-07-13T04:43:47;2.13;;;1.00;;
74196;SDS011;62555;52.678;4.900;2023-07-13T04:46:14;2.95;;;1.20;;
74196;SDS011;62555;52.678;4.900;2023-07-13T04:48:40;1.67;;;1.05;;
74196;SDS011;62555;52.678;4.900;2023-07-13T04:51:05;1.67;;;1.20;;
74196;SDS011;62555;52.678;4.900;2023-07-13T04:53:31;1.73;;;1.20;;
74196;SDS011;62555;52.678;4.900;2023-07-13T04:55:57;2.38;;;1.23;;
74196;SDS011;62555;52.678;4.900;2023-07-13T04:58:23;2.28;;;1.10;;
74196;SDS011;62555;52.678;4.900;2023-07-13T05:00:49;2.72;;;1.02;;
74196;SDS011;62555;52.678;4.900;2023-07-13T05:03:14;1.80;;;1.02;;
74196;SDS011;62555;52.678;4.900;2023-07-13T05:05:39;1.17;;;0.83;;
74196;SDS011;62555;52.678;4.900;2023-07-13T05:08:04;2.00;;;1.00;;
74196;SDS011;62555;52.678;4.900;2023-07-13T05:10:30;2.40;;;0.90;;
74196;SDS011;62555;52.678;4.900;2023-07-13T05:12:55;1.93;;;0.90;;
74196;SDS011;62555;52.678;4.900;2023-07-13T05:15:23;2.20;;;1.07;;
74196;SDS011;62555;52.678;4.900;2023-07-13T05:17:49;2.33;;;1.20;;
74196;SDS011;62555;52.678;4.900;2023-07-13T05:20:14;2.13;;;1.08;;
74196;SDS011;62555;52.678;4.900;2023-07-13T05:22:40;2.63;;;1.55;;
74196;SDS011;62555;52.678;4.900;2023-07-13T05:25:05;1.75;;;1.15;;
74196;SDS011;62555;52.678;4.900;2023-07-13T05:27:31;2.67;;;1.10;;
74196;SDS011;62555;52.678;4.900;2023-07-13T05:29:56;1.50;;;1.10;;
74196;SDS011;62555;52.678;4.900;2023-07-13T05:32:21;2.13;;;0.90;;
74196;SDS011;62555;52.678;4.900;2023-07-13T05:34:47;2.50;;;1.10;;
74196;SDS011;62555;52.678;4.900;2023-07-13T05:37:12;2.40;;;0.93;;
74196;SDS011;62555;52.678;4.900;2023-07-13T05:39:37;1.30;;;0.90;;
74196;SDS011;62555;52.678;4.900;2023-07-13T05:42:02;1.83;;;1.10;;
74196;SDS011;62555;52.678;4.900;2023-07-13T05:44:28;1.55;;;0.90;;
74196;SDS011;62555;52.678;4.900;2023-07-13T05:46:53;2.67;;;0.87;;
74196;SDS011;62555;52.678;4.900;2023-07-13T05:49:21;1.25;;;0.98;;
74196;SDS011;62555;52.678;4.900;2023-07-13T05:51:46;2.13;;;1.27;;
74196;SDS011;62555;52.678;4.900;2023-07-13T05:54:11;1.50;;;0.80;;
74196;SDS011;62555;52.678;4.900;2023-07-13T05:56:36;1.97;;;1.13;;
74196;SDS011;62555;52.678;4.900;2023-07-13T05:59:01;1.10;;;1.00;;
74196;SDS011;62555;52.678;4.900;2023-07-13T06:01:27;3.23;;;1.47;;
74196;SDS011;62555;52.678;4.900;2023-07-13T06:03:52;1.88;;;1.23;;
74196;SDS011;62555;52.678;4.900;2023-07-13T06:06:17;1.27;;;0.80;;
74196;SDS011;62555;52.678;4.900;2023-07-13T06:08:42;1.77;;;1.50;;
74196;SDS011;62555;52.678;4.900;2023-07-13T06:11:17;1.67;;;1.00;;
74196;SDS011;62555;52.678;4.900;2023-07-13T06:13:42;1.38;;;0.98;;
74196;SDS011;62555;52.678;4.900;2023-07-13T06:16:07;3.13;;;1.40;;
74196;SDS011;62555;52.678;4.900;2023-07-13T06:18:34;3.67;;;1.40;;
74196;SDS011;62555;52.678;4.900;2023-07-13T06:20:59;2.03;;;1.15;;
74196;SDS011;62555;52.678;4.900;2023-07-13T06:23:25;2.63;;;1.13;;
74196;SDS011;62555;52.678;4.900;2023-07-13T06:25:50;3.55;;;1.40;;
74196;SDS011;62555;52.678;4.900;2023-07-13T06:28:15;3.35;;;1.13;;
74196;SDS011;62555;52.678;4.900;2023-07-13T06:30:41;2.60;;;1.37;;
74196;SDS011;62555;52.678;4.900;2023-07-13T06:33:06;4.17;;;1.40;;
74196;SDS011;62555;52.678;4.900;2023-07-13T06:35:31;3.47;;;1.10;;
74196;SDS011;62555;52.678;4.900;2023-07-13T06:37:56;2.43;;;1.10;;
74196;SDS011;62555;52.678;4.900;2023-07-13T06:40:22;3.03;;;1.00;;
74196;SDS011;62555;52.678;4.900;2023-07-13T06:42:47;2.20;;;1.07;;
74196;SDS011;62555;52.678;4.900;2023-07-13T06:45:12;1.60;;;1.07;;
74196;SDS011;62555;52.678;4.900;2023-07-13T06:47:37;2.87;;;1.10;;
74196;SDS011;62555;52.678;4.900;2023-07-13T06:50:03;3.43;;;1.10;;
74196;SDS011;62555;52.678;4.900;2023-07-13T06:52:28;2.10;;;1.20;;
74196;SDS011;62555;52.678;4.900;2023-07-13T06:54:53;9.30;;;1.70;;
74196;SDS011;62555;52.678;4.900;2023-07-13T06:57:18;1.73;;;1.10;;
74196;SDS011;62555;52.678;4.900;2023-07-13T06:59:43;1.90;;;1.00;;
74196;SDS011;62555;52.678;4.900;2023-07-13T07:02:09;2.00;;;1.23;;
74196;SDS011;62555;52.678;4.900;2023-07-13T07:04:35;2.88;;;1.38;;
74196;SDS011;62555;52.678;4.900;2023-07-13T07:07:00;1.97;;;1.00;;
74196;SDS011;62555;52.678;4.900;2023-07-13T07:09:25;1.47;;;0.90;;
74196;SDS011;62555;52.678;4.900;2023-07-13T07:11:50;1.97;;;1.00;;
74196;SDS011;62555;52.678;4.900;2023-07-13T07:14:16;2.27;;;1.30;;
74196;SDS011;62555;52.678;4.900;2023-07-13T07:16:41;3.07;;;1.20;;
74196;SDS011;62555;52.678;4.900;2023-07-13T07:19:06;2.73;;;1.30;;
74196;SDS011;62555;52.678;4.900;2023-07-13T07:21:31;1.97;;;1.20;;
74196;SDS011;62555;52.678;4.900;2023-07-13T07:23:57;1.40;;;1.05;;
74196;SDS011;62555;52.678;4.900;2023-07-13T07:26:22;2.63;;;1.10;;
74196;SDS011;62555;52.678;4.900;2023-07-13T07:28:47;1.80;;;1.17;;
74196;SDS011;62555;52.678;4.900;2023-07-13T07:31:12;2.03;;;1.17;;
74196;SDS011;62555;52.678;4.900;2023-07-13T07:33:38;1.97;;;1.10;;
74196;SDS011;62555;52.678;4.900;2023-07-13T07:36:03;1.33;;;0.90;;
74196;SDS011;62555;52.678;4.900;2023-07-13T07:38:29;2.15;;;1.10;;
74196;SDS011;62555;52.678;4.900;2023-07-13T07:40:54;2.72;;;1.50;;
74196;SDS011;62555;52.678;4.900;2023-07-13T07:43:19;2.20;;;1.00;;
74196;SDS011;62555;52.678;4.900;2023-07-13T07:45:44;3.80;;;1.47;;
74196;SDS011;62555;52.678;4.900;2023-07-13T07:48:10;1.33;;;1.02;;
74196;SDS011;62555;52.678;4.900;2023-07-13T07:50:35;2.60;;;0.93;;
74196;SDS011;62555;52.678;4.900;2023-07-13T07:53:01;1.35;;;0.90;;
74196;SDS011;62555;52.678;4.900;2023-07-13T07:55:27;2.75;;;1.20;;
74196;SDS011;62555;52.678;4.900;2023-07-13T07:57:52;1.97;;;1.30;;
74196;SDS011;62555;52.678;4.900;2023-07-13T08:00:17;1.53;;;1.00;;
74196;SDS011;62555;52.678;4.900;2023-07-13T08:02:43;1.30;;;1.00;;
74196;SDS011;62555;52.678;4.900;2023-07-13T08:05:08;1.95;;;1.00;;
74196;SDS011;62555;52.678;4.900;2023-07-13T08:07:34;3.25;;;1.35;;
74196;SDS011;62555;52.678;4.900;2023-07-13T08:09:59;1.17;;;0.93;;
74196;SDS011;62555;52.678;4.900;2023-07-13T08:12:25;1.63;;;1.00;;
74196;SDS011;62555;52.678;4.900;2023-07-13T08:14:50;1.93;;;1.47;;
74196;SDS011;62555;52.678;4.900;2023-07-13T08:17:18;1.83;;;1.17;;
74196;SDS011;62555;52.678;4.900;2023-07-13T08:19:43;1.27;;;1.10;;
74196;SDS011;62555;52.678;4.900;2023-07-13T08:22:09;1.50;;;1.00;;
74196;SDS011;62555;52.678;4.900;2023-07-13T08:24:34;2.23;;;1.23;;
74196;SDS011;62555;52.678;4.900;2023-07-13T08:26:59;2.13;;;0.90;;
74196;SDS011;62555;52.678;4.900;2023-07-13T08:29:24;2.00;;;1.30;;
74196;SDS011;62555;52.678;4.900;2023-07-13T08:31:49;1.33;;;1.00;;
74196;SDS011;62555;52.678;4.900;2023-07-13T08:34:15;1.73;;;1.00;;
74196;SDS011;62555;52.678;4.900;2023-07-13T08:36:41;1.13;;;0.98;;
74196;SDS011;62555;52.678;4.900;2023-07-13T08:39:06;1.13;;;0.87;;
74196;SDS011;62555;52.678;4.900;2023-07-13T08:41:32;1.75;;;0.90;;
74196;SDS011;62555;52.678;4.900;2023-07-13T08:43:58;1.80;;;0.98;;
74196;SDS011;62555;52.678;4.900;2023-07-13T08:46:29;2.22;;;1.00;;
74196;SDS011;62555;52.678;4.900;2023-07-13T08:48:59;1.25;;;0.82;;
74196;SDS011;62555;52.678;4.900;2023-07-13T08:51:38;1.60;;;1.17;;
74196;SDS011;62555;52.678;4.900;2023-07-13T08:54:09;1.35;;;0.80;;
74196;SDS011;62555;52.678;4.900;2023-07-13T08:56:35;1.63;;;1.00;;
74196;SDS011;62555;52.678;4.900;2023-07-13T08:59:21;1.98;;;1.15;;
74196;SDS011;62555;52.678;4.900;2023-07-13T09:01:53;2.05;;;1.10;;
74196;SDS011;62555;52.678;4.900;2023-07-13T09:04:25;1.25;;;1.15;;
74196;SDS011;62555;52.678;4.900;2023-07-13T09:12:11;1.65;;;1.08;;
74196;SDS011;62555;52.678;4.900;2023-07-13T09:14:43;1.75;;;1.17;;
74196;SDS011;62555;52.678;4.900;2023-07-13T09:17:11;1.10;;;0.95;;
74196;SDS011;62555;52.678;4.900;2023-07-13T09:19:38;1.60;;;1.00;;
74196;SDS011;62555;52.678;4.900;2023-07-13T09:22:05;1.50;;;1.10;;
74196;SDS011;62555;52.678;4.900;2023-07-13T09:27:00;1.20;;;0.80;;
74196;SDS011;62555;52.678;4.900;2023-07-13T09:29:29;1.40;;;0.90;;
74196;SDS011;62555;52.678;4.900;2023-07-13T09:31:58;1.17;;;0.85;;
74196;SDS011;62555;52.678;4.900;2023-07-13T09:34:26;2.03;;;1.10;;
74196;SDS011;62555;52.678;4.900;2023-07-13T09:36:51;1.10;;;0.93;;
74196;SDS011;62555;52.678;4.900;2023-07-13T09:41:50;1.60;;;1.00;;
74196;SDS011;62555;52.678;4.900;2023-07-13T09:44:17;1.33;;;1.10;;
74196;SDS011;62555;52.678;4.900;2023-07-13T09:46:47;1.60;;;0.90;;
74196;SDS011;62555;52.678;4.900;2023-07-13T09:49:17;1.85;;;1.00;;
74196;SDS011;62555;52.678;4.900;2023-07-13T09:51:42;2.25;;;1.13;;
74196;SDS011;62555;52.678;4.900;2023-07-13T09:54:19;1.08;;;0.90;;
74196;SDS011;62555;52.678;4.900;2023-07-13T09:56:45;1.40;;;1.10;;
74196;SDS011;62555;52.678;4.900;2023-07-13T09:59:20;2.20;;;1.10;;
74196;SDS011;62555;52.678;4.900;2023-07-13T10:01:46;1.48;;;1.08;;
74196;SDS011;62555;52.678;4.900;2023-07-13T10:04:13;1.40;;;0.88;;
74196;SDS011;62555;52.678;4.900;2023-07-13T10:06:41;1.27;;;1.10;;
74196;SDS011;62555;52.678;4.900;2023-07-13T10:09:07;2.05;;;1.10;;
74196;SDS011;62555;52.678;4.900;2023-07-13T10:11:34;2.78;;;1.33;;
74196;SDS011;62555;52.678;4.900;2023-07-13T10:14:00;1.33;;;0.93;;
74196;SDS011;62555;52.678;4.900;2023-07-13T10:16:31;1.63;;;1.20;;
74196;SDS011;62555;52.678;4.900;2023-07-13T10:19:02;2.13;;;1.00;;
74196;SDS011;62555;52.678;4.900;2023-07-13T10:21:32;2.30;;;1.20;;
74196;SDS011;62555;52.678;4.900;2023-07-13T10:24:15;1.63;;;1.10;;
74196;SDS011;62555;52.678;4.900;2023-07-13T10:29:20;1.38;;;1.00;;
74196;SDS011;62555;52.678;4.900;2023-07-13T10:31:47;2.53;;;1.20;;
74196;SDS011;62555;52.678;4.900;2023-07-13T10:34:12;1.43;;;0.90;;
74196;SDS011;62555;52.678;4.900;2023-07-13T10:36:47;1.77;;;1.17;;
74196;SDS011;62555;52.678;4.900;2023-07-13T10:39:24;1.25;;;0.95;;
74196;SDS011;62555;52.678;4.900;2023-07-13T10:41:53;1.40;;;1.02;;
74196;SDS011;62555;52.678;4.900;2023-07-13T10:44:23;1.45;;;1.00;;
74196;SDS011;62555;52.678;4.900;2023-07-13T10:46:51;1.92;;;1.20;;
74196;SDS011;62555;52.678;4.900;2023-07-13T10:49:16;1.80;;;0.80;;
74196;SDS011;62555;52.678;4.900;2023-07-13T10:51:42;2.58;;;1.38;;
74196;SDS011;62555;52.678;4.900;2023-07-13T10:56:40;2.13;;;1.17;;
74196;SDS011;62555;52.678;4.900;2023-07-13T10:59:11;1.35;;;1.00;;
74196;SDS011;62555;52.678;4.900;2023-07-13T11:01:40;1.13;;;1.02;;
74196;SDS011;62555;52.678;4.900;2023-07-13T11:04:12;1.58;;;1.10;;
74196;SDS011;62555;52.678;4.900;2023-07-13T11:06:38;2.33;;;1.52;;
74196;SDS011;62555;52.678;4.900;2023-07-13T11:11:49;2.65;;;1.42;;
74196;SDS011;62555;52.678;4.900;2023-07-13T11:14:31;1.57;;;1.20;;
74196;SDS011;62555;52.678;4.900;2023-07-13T11:17:00;1.50;;;1.10;;
74196;SDS011;62555;52.678;4.900;2023-07-13T11:19:45;2.55;;;1.00;;
74196;SDS011;62555;52.678;4.900;2023-07-13T11:22:16;2.40;;;1.25;;
74196;SDS011;62555;52.678;4.900;2023-07-13T11:24:58;1.63;;;1.20;;
74196;SDS011;62555;52.678;4.900;2023-07-13T11:27:32;1.48;;;1.10;;
74196;SDS011;62555;52.678;4.900;2023-07-13T11:32:32;1.70;;;1.50;;
74196;SDS011;62555;52.678;4.900;2023-07-13T11:34:58;1.93;;;1.33;;
74196;SDS011;62555;52.678;4.900;2023-07-13T11:37:23;2.53;;;1.50;;
74196;SDS011;62555;52.678;4.900;2023-07-13T11:39:50;1.38;;;1.00;;
74196;SDS011;62555;52.678;4.900;2023-07-13T11:42:17;1.92;;;1.33;;
74196;SDS011;62555;52.678;4.900;2023-07-13T11:44:46;1.85;;;1.40;;
74196;SDS011;62555;52.678;4.900;2023-07-13T11:47:19;1.20;;;1.10;;
74196;SDS011;62555;52.678;4.900;2023-07-13T11:49:48;1.90;;;1.45;;
74196;SDS011;62555;52.678;4.900;2023-07-13T11:52:15;2.20;;;1.40;;
74196;SDS011;62555;52.678;4.900;2023-07-13T11:54:43;2.78;;;1.10;;
74196;SDS011;62555;52.678;4.900;2023-07-13T11:59:52;1.67;;;1.20;;
74196;SDS011;62555;52.678;4.900;2023-07-13T12:02:30;2.15;;;1.70;;
74196;SDS011;62555;52.678;4.900;2023-07-13T12:04:56;1.65;;;1.13;;
74196;SDS011;62555;52.678;4.900;2023-07-13T12:07:22;2.40;;;1.60;;
74196;SDS011;62555;52.678;4.900;2023-07-13T12:09:47;2.28;;;1.20;;
74196;SDS011;62555;52.678;4.900;2023-07-13T12:12:17;2.05;;;1.20;;
74196;SDS011;62555;52.678;4.900;2023-07-13T12:14:42;2.00;;;1.30;;
74196;SDS011;62555;52.678;4.900;2023-07-13T12:17:21;2.40;;;1.27;;
74196;SDS011;62555;52.678;4.900;2023-07-13T12:19:47;2.17;;;1.50;;
74196;SDS011;62555;52.678;4.900;2023-07-13T12:22:13;2.78;;;1.60;;
74196;SDS011;62555;52.678;4.900;2023-07-13T12:24:39;3.03;;;1.30;;
74196;SDS011;62555;52.678;4.900;2023-07-13T12:27:05;1.50;;;1.20;;
74196;SDS011;62555;52.678;4.900;2023-07-13T12:29:32;2.72;;;1.40;;
74196;SDS011;62555;52.678;4.900;2023-07-13T12:31:57;1.55;;;1.40;;
74196;SDS011;62555;52.678;4.900;2023-07-13T12:34:24;2.25;;;1.35;;
74196;SDS011;62555;52.678;4.900;2023-07-13T12:36:51;1.92;;;1.23;;
74196;SDS011;62555;52.678;4.900;2023-07-13T12:41:41;1.97;;;1.30;;
74196;SDS011;62555;52.678;4.900;2023-07-13T12:44:12;2.78;;;1.05;;
74196;SDS011;62555;52.678;4.900;2023-07-13T12:46:38;2.40;;;1.20;;
74196;SDS011;62555;52.678;4.900;2023-07-13T12:49:05;2.28;;;1.50;;
74196;SDS011;62555;52.678;4.900;2023-07-13T12:51:32;1.15;;;1.05;;
74196;SDS011;62555;52.678;4.900;2023-07-13T12:53:58;1.95;;;1.23;;
74196;SDS011;62555;52.678;4.900;2023-07-13T12:56:29;1.80;;;1.08;;
74196;SDS011;62555;52.678;4.900;2023-07-13T12:58:58;2.20;;;1.38;;
74196;SDS011;62555;52.678;4.900;2023-07-13T13:01:26;1.95;;;1.30;;
74196;SDS011;62555;52.678;4.900;2023-07-13T13:03:52;2.38;;;1.38;;
74196;SDS011;62555;52.678;4.900;2023-07-13T13:08:47;1.73;;;1.33;;
74196;SDS011;62555;52.678;4.900;2023-07-13T13:11:14;1.98;;;1.27;;
74196;SDS011;62555;52.678;4.900;2023-07-13T13:13:40;3.38;;;1.40;;
74196;SDS011;62555;52.678;4.900;2023-07-13T13:18:34;2.42;;;1.40;;
74196;SDS011;62555;52.678;4.900;2023-07-13T13:21:00;2.33;;;1.30;;
74196;SDS011;62555;52.678;4.900;2023-07-13T13:23:26;2.22;;;1.38;;
74196;SDS011;62555;52.678;4.900;2023-07-13T13:25:51;1.97;;;1.47;;
74196;SDS011;62555;52.678;4.900;2023-07-13T13:28:17;1.90;;;1.58;;
74196;SDS011;62555;52.678;4.900;2023-07-13T13:30:44;1.42;;;1.15;;
74196;SDS011;62555;52.678;4.900;2023-07-13T13:33:10;2.03;;;1.35;;
74196;SDS011;62555;52.678;4.900;2023-07-13T13:35:37;2.55;;;1.40;;
74196;SDS011;62555;52.678;4.900;2023-07-13T13:38:04;1.20;;;1.10;;
74196;SDS011;62555;52.678;4.900;2023-07-13T13:40:29;2.92;;;1.58;;
74196;SDS011;62555;52.678;4.900;2023-07-13T13:42:55;2.08;;;1.52;;
74196;SDS011;62555;52.678;4.900;2023-07-13T13:45:21;1.33;;;1.20;;
74196;SDS011;62555;52.678;4.900;2023-07-13T13:47:46;2.20;;;1.50;;
74196;SDS011;62555;52.678;4.900;2023-07-13T13:50:14;2.53;;;2.10;;
74196;SDS011;62555;52.678;4.900;2023-07-13T13:52:39;3.50;;;2.05;;
74196;SDS011;62555;52.678;4.900;2023-07-13T13:55:11;4.32;;;2.30;;
74196;SDS011;62555;52.678;4.900;2023-07-13T13:57:36;3.80;;;2.33;;
74196;SDS011;62555;52.678;4.900;2023-07-13T14:00:02;4.83;;;3.00;;
74196;SDS011;62555;52.678;4.900;2023-07-13T14:02:28;6.28;;;3.72;;
74196;SDS011;62555;52.678;4.900;2023-07-13T14:04:55;7.88;;;4.85;;
74196;SDS011;62555;52.678;4.900;2023-07-13T14:07:21;8.80;;;5.25;;
74196;SDS011;62555;52.678;4.900;2023-07-13T14:09:46;11.60;;;6.83;;
74196;SDS011;62555;52.678;4.900;2023-07-13T14:12:11;12.50;;;8.70;;
74196;SDS011;62555;52.678;4.900;2023-07-13T14:14:37;16.17;;;9.63;;
74196;SDS011;62555;52.678;4.900;2023-07-13T14:17:02;18.02;;;10.52;;
74196;SDS011;62555;52.678;4.900;2023-07-13T14:19:27;18.93;;;12.60;;
74196;SDS011;62555;52.678;4.900;2023-07-13T14:21:52;25.77;;;14.83;;
74196;SDS011;62555;52.678;4.900;2023-07-13T14:24:18;23.77;;;15.45;;
74196;SDS011;62555;52.678;4.900;2023-07-13T14:26:43;29.60;;;18.53;;
74196;SDS011;62555;52.678;4.900;2023-07-13T14:29:13;27.85;;;18.40;;
74196;SDS011;62555;52.678;4.900;2023-07-13T14:31:39;36.28;;;23.58;;
74196;SDS011;62555;52.678;4.900;2023-07-13T14:34:04;45.00;;;28.13;;
74196;SDS011;62555;52.678;4.900;2023-07-13T14:36:40;44.43;;;30.17;;
74196;SDS011;62555;52.678;4.900;2023-07-13T14:39:11;55.67;;;33.63;;
74196;SDS011;62555;52.678;4.900;2023-07-13T14:41:36;60.85;;;38.38;;
74196;SDS011;62555;52.678;4.900;2023-07-13T14:44:04;69.82;;;42.15;;
74196;SDS011;62555;52.678;4.900;2023-07-13T14:46:31;71.28;;;43.22;;
74196;SDS011;62555;52.678;4.900;2023-07-13T14:49:02;75.72;;;45.45;;
74196;SDS011;62555;52.678;4.900;2023-07-13T14:51:28;75.88;;;45.95;;
74196;SDS011;62555;52.678;4.900;2023-07-13T14:53:53;78.18;;;48.17;;
74196;SDS011;62555;52.678;4.900;2023-07-13T14:56:19;74.97;;;48.00;;
74196;SDS011;62555;52.678;4.900;2023-07-13T14:58:44;81.22;;;50.90;;
74196;SDS011;62555;52.678;4.900;2023-07-13T15:01:13;77.60;;;50.90;;
74196;SDS011;62555;52.678;4.900;2023-07-13T15:03:41;79.20;;;49.63;;
74196;SDS011;62555;52.678;4.900;2023-07-13T15:06:11;82.00;;;52.70;;
74196;SDS011;62555;52.678;4.900;2023-07-13T15:08:37;83.00;;;53.28;;
74196;SDS011;62555;52.678;4.900;2023-07-13T15:11:02;83.53;;;53.50;;
74196;SDS011;62555;52.678;4.900;2023-07-13T15:15:55;83.97;;;52.10;;
74196;SDS011;62555;52.678;4.900;2023-07-13T15:18:21;78.73;;;50.53;;